createdAt,value
2023-04-22T00:00:58.936Z,92.30
2023-04-22T00:03:28.060Z,92.30
2023-04-22T00:05:56.046Z,92.40
2023-04-22T00:08:26.501Z,92.40
2023-04-22T00:10:53.868Z,92.40
2023-04-22T00:13:21.299Z,92.40
2023-04-22T00:15:48.453Z,92.50
2023-04-22T00:18:16.643Z,92.50
2023-04-22T00:20:45.349Z,92.50
2023-04-22T00:23:14.698Z,92.50
2023-04-22T00:25:42.019Z,92.50
2023-04-22T00:28:09.326Z,92.60
2023-04-22T00:30:39.225Z,92.60
2023-04-22T00:33:08.763Z,92.60
2023-04-22T00:35:36.129Z,92.70
2023-04-22T00:38:04.080Z,92.70
2023-04-22T00:40:34.435Z,92.70
2023-04-22T00:43:04.350Z,92.80
2023-04-22T00:45:33.208Z,92.80
2023-04-22T00:48:01.622Z,92.80
2023-04-22T00:50:34.102Z,92.80
2023-04-22T00:53:01.445Z,92.90
2023-04-22T00:55:31.755Z,92.90
2023-04-22T00:58:03.985Z,92.90
2023-04-22T01:00:31.198Z,92.90
2023-04-22T01:02:59.270Z,93.00
2023-04-22T01:05:31.874Z,93.00
2023-04-22T01:08:04.848Z,93.00
2023-04-22T01:10:32.076Z,93.00
2023-04-22T01:13:00.846Z,93.00
2023-04-22T01:15:28.953Z,93.00
2023-04-22T01:17:59.056Z,93.00
2023-04-22T01:20:30.643Z,93.00
2023-04-22T01:22:59.634Z,93.10
2023-04-22T01:25:27.229Z,93.10
2023-04-22T01:27:58.111Z,93.10
2023-04-22T01:30:25.421Z,93.20
2023-04-22T01:32:53.337Z,93.20
2023-04-22T01:35:21.311Z,93.20
2023-04-22T01:37:48.712Z,93.20
2023-04-22T01:40:19.962Z,93.20
2023-04-22T01:42:47.193Z,93.30
2023-04-22T01:45:17.661Z,93.30
2023-04-22T01:47:44.976Z,93.30
2023-04-22T01:50:19.509Z,93.40
2023-04-22T01:52:47.236Z,93.40
2023-04-22T01:55:17.767Z,93.40
2023-04-22T01:57:50.394Z,93.40
2023-04-22T02:00:19.919Z,93.40
2023-04-22T02:02:48.794Z,93.70
2023-04-22T02:05:23.042Z,93.50
2023-04-22T02:07:53.826Z,93.50
2023-04-22T02:10:21.866Z,93.50
2023-04-22T02:12:52.591Z,93.50
2023-04-22T02:15:21.135Z,93.50
2023-04-22T02:17:51.501Z,93.50
2023-04-22T02:20:18.796Z,93.50
2023-04-22T02:22:46.051Z,93.50
2023-04-22T02:25:14.504Z,93.50
2023-04-22T02:27:42.779Z,93.50
2023-04-22T02:30:10.289Z,93.50
2023-04-22T02:32:39.005Z,93.50
2023-04-22T02:35:06.933Z,93.40
2023-04-22T02:37:34.092Z,93.40
2023-04-22T02:40:01.137Z,93.40
2023-04-22T02:42:30.327Z,93.50
2023-04-22T02:44:57.565Z,93.50
2023-04-22T02:47:25.400Z,93.50
2023-04-22T02:49:52.609Z,93.50
2023-04-22T02:52:24.676Z,93.50
2023-04-22T02:54:52.131Z,93.50
2023-04-22T02:57:19.256Z,93.50
2023-04-22T02:59:46.774Z,93.40
2023-04-22T03:02:17.169Z,93.40
2023-04-22T03:05:05.141Z,93.40
2023-04-22T03:07:32.320Z,93.40
2023-04-22T03:10:00.344Z,93.40
2023-04-22T03:12:31.817Z,93.40
2023-04-22T03:15:01.524Z,93.50
2023-04-22T03:17:31.412Z,93.50
2023-04-22T03:20:01.161Z,93.50
2023-04-22T03:22:28.993Z,93.50
2023-04-22T03:25:01.605Z,93.50
2023-04-22T03:27:29.717Z,93.50
2023-04-22T03:29:56.806Z,93.50
2023-04-22T03:32:24.027Z,93.50
2023-04-22T03:35:01.310Z,93.50
2023-04-22T03:37:29.131Z,93.50
2023-04-22T03:39:58.333Z,93.50
2023-04-22T03:42:27.921Z,93.50
2023-04-22T03:44:56.486Z,93.60
2023-04-22T03:47:27.188Z,93.60
2023-04-22T03:50:01.577Z,93.60
2023-04-22T03:52:32.856Z,93.60
2023-04-22T03:55:03.785Z,93.60
2023-04-22T03:57:31.800Z,93.60
2023-04-22T04:00:00.337Z,93.60
2023-04-22T04:02:30.029Z,93.60
2023-04-22T04:04:59.922Z,93.60
2023-04-22T04:07:27.623Z,93.60
2023-04-22T04:09:55.033Z,93.60
2023-04-22T04:12:22.785Z,93.60
2023-04-22T04:14:50.150Z,93.60
2023-04-22T04:17:26.111Z,93.60
2023-04-22T04:19:53.951Z,93.60
2023-04-22T04:22:22.195Z,93.60
2023-04-22T04:24:56.848Z,93.60
2023-04-22T04:27:29.686Z,93.60
2023-04-22T04:29:57.094Z,93.60
2023-04-22T04:32:36.873Z,93.60
2023-04-22T04:35:09.562Z,93.60
2023-04-22T04:37:40.529Z,93.70
2023-04-22T04:40:12.389Z,93.70
2023-04-22T04:42:55.775Z,93.70
2023-04-22T04:45:30.266Z,93.70
2023-04-22T04:48:05.246Z,93.70
2023-04-22T04:50:36.342Z,93.70
2023-04-22T04:53:09.391Z,93.70
2023-04-22T04:55:41.064Z,93.60
2023-04-22T04:58:16.053Z,93.70
2023-04-22T05:00:43.645Z,93.70
2023-04-22T05:03:11.943Z,93.70
2023-04-22T05:05:40.069Z,93.70
2023-04-22T05:08:07.331Z,93.70
2023-04-22T05:10:36.733Z,93.70
2023-04-22T05:13:04.560Z,93.70
2023-04-22T05:15:32.918Z,93.70
2023-04-22T05:18:00.377Z,94.00
2023-04-22T05:20:27.657Z,93.70
2023-04-22T05:22:54.790Z,93.70
2023-04-22T05:25:28.282Z,93.70
2023-04-22T05:28:01.755Z,93.60
2023-04-22T05:30:34.963Z,93.60
2023-04-22T05:33:08.298Z,93.60
2023-04-22T05:35:38.483Z,93.60
2023-04-22T05:38:06.561Z,93.60
2023-04-22T05:40:37.755Z,93.60
2023-04-22T05:43:06.546Z,93.70
2023-04-22T05:45:34.678Z,93.60
2023-04-22T05:48:03.804Z,93.60
2023-04-22T05:50:36.133Z,93.60
2023-04-22T05:53:08.022Z,93.60
2023-04-22T05:55:37.405Z,93.50
2023-04-22T05:58:07.722Z,93.50
2023-04-22T06:00:50.035Z,93.50
2023-04-22T06:03:35.705Z,93.40
2023-04-22T06:06:03.472Z,93.40
2023-04-22T06:08:31.681Z,93.40
2023-04-22T06:11:01.307Z,93.40
2023-04-22T06:13:31.627Z,93.40
2023-04-22T06:15:59.068Z,93.30
2023-04-22T06:18:29.640Z,93.30
2023-04-22T06:20:56.845Z,93.30
2023-04-22T06:23:29.262Z,93.20
2023-04-22T06:25:58.642Z,93.20
2023-04-22T06:28:25.938Z,93.20
2023-04-22T06:30:56.203Z,93.20
2023-04-22T06:33:25.862Z,93.20
2023-04-22T06:35:53.182Z,93.20
2023-04-22T06:38:22.974Z,93.20
2023-04-22T06:41:11.657Z,93.30
2023-04-22T06:43:43.419Z,93.30
2023-04-22T06:46:19.214Z,93.30
2023-04-22T06:48:58.708Z,93.30
2023-04-22T06:51:48.783Z,93.30
2023-04-22T06:54:16.294Z,93.20
2023-04-22T06:56:43.645Z,93.10
2023-04-22T06:59:14.333Z,93.00
2023-04-22T07:01:43.712Z,92.90
2023-04-22T07:04:11.101Z,92.80
2023-04-22T07:06:38.742Z,92.70
2023-04-22T07:09:08.016Z,92.60
2023-04-22T07:11:38.847Z,92.60
2023-04-22T07:14:17.562Z,92.50
2023-04-22T07:16:47.656Z,92.40
2023-04-22T07:19:17.957Z,92.40
2023-04-22T07:21:48.244Z,92.30
2023-04-22T07:24:16.119Z,92.30
2023-04-22T07:26:44.573Z,92.30
2023-04-22T07:29:14.435Z,92.20
2023-04-22T07:31:42.887Z,92.10
2023-04-22T07:34:10.878Z,92.00
2023-04-22T07:36:38.108Z,91.90
2023-04-22T07:39:06.508Z,91.80
2023-04-22T07:41:35.230Z,91.70
2023-04-22T07:44:03.532Z,91.70
2023-04-22T07:46:31.096Z,91.70
2023-04-22T07:49:01.644Z,91.70
2023-04-22T07:51:29.074Z,91.60
2023-04-22T07:53:56.454Z,91.50
2023-04-22T07:56:26.654Z,91.50
2023-04-22T07:58:53.696Z,91.40
2023-04-22T08:01:20.909Z,91.40
2023-04-22T08:03:48.651Z,91.50
2023-04-22T08:06:16.072Z,91.50
2023-04-22T08:08:43.336Z,91.40
2023-04-22T08:11:10.696Z,91.40
2023-04-22T08:27:31.115Z,90.90
2023-04-22T08:30:14.394Z,90.90
2023-04-22T08:32:44.636Z,90.80
2023-04-22T08:35:12.171Z,90.70
2023-04-22T08:37:41.424Z,90.60
2023-04-22T08:40:35.020Z,90.50
2023-04-22T08:43:04.889Z,90.40
2023-04-22T08:45:35.553Z,90.50
2023-04-22T08:48:03.053Z,90.50
2023-04-22T08:50:34.584Z,90.40
2023-04-22T09:32:48.064Z,88.40
2023-04-22T09:35:57.798Z,88.10
2023-04-22T09:43:22.424Z,87.30
2023-04-22T09:49:50.845Z,87.30
2023-04-22T09:52:43.897Z,87.30
2023-04-22T09:55:36.020Z,86.50
2023-04-22T09:58:08.907Z,86.20
2023-04-22T10:03:43.156Z,85.90
2023-04-22T10:06:15.598Z,85.30
2023-04-22T10:08:54.038Z,85.20
2023-04-22T10:11:38.622Z,85.00
2023-04-22T10:14:08.974Z,84.60
2023-04-22T10:21:10.760Z,84.20
2023-04-22T10:23:47.351Z,84.20
2023-04-22T10:26:34.294Z,83.90
2023-04-22T10:30:04.873Z,83.60
2023-04-22T10:33:19.908Z,82.80
2023-04-22T10:36:08.089Z,82.00
2023-04-22T10:38:39.467Z,81.50
2023-04-22T10:41:16.257Z,80.60
2023-04-22T10:43:55.974Z,79.60
2023-04-22T10:46:33.104Z,79.20
2023-04-22T10:49:24.452Z,78.80
2023-04-22T10:52:29.622Z,79.30
2023-04-22T10:54:58.740Z,79.60
2023-04-22T10:57:43.898Z,79.50
2023-04-22T11:00:52.502Z,79.20
2023-04-22T11:03:50.354Z,79.00
2023-04-22T11:06:25.006Z,78.20
2023-04-22T11:09:40.607Z,78.20
2023-04-22T11:12:42.618Z,78.60
2023-04-22T11:15:11.126Z,79.00
2023-04-22T11:17:40.216Z,79.10
2023-04-22T11:20:10.659Z,79.40
2023-04-22T11:22:45.310Z,79.40
2023-04-22T11:25:12.566Z,79.50
2023-04-22T11:27:42.071Z,79.70
2023-04-22T11:30:16.787Z,79.70
2023-04-22T11:32:58.837Z,79.20
2023-04-22T11:35:32.370Z,79.50
2023-04-22T11:38:08.425Z,79.70
2023-04-22T11:41:26.795Z,79.40
2023-04-22T11:44:00.096Z,79.20
2023-04-22T11:46:31.246Z,79.30
2023-04-22T11:49:28.001Z,79.10
2023-04-22T11:51:56.658Z,78.80
2023-04-22T11:54:35.178Z,79.00
2023-04-22T11:57:14.652Z,78.50
2023-04-22T11:59:42.624Z,78.70
2023-04-22T12:02:10.485Z,79.30
2023-04-22T12:04:41.642Z,78.70
2023-04-22T12:07:08.714Z,78.80
2023-04-22T12:09:35.740Z,79.00
2023-04-22T12:12:05.625Z,79.20
2023-04-22T12:14:36.457Z,79.30
2023-04-22T12:17:09.479Z,79.30
2023-04-22T12:19:37.939Z,79.40
2023-04-22T12:22:05.409Z,79.70
2023-04-22T12:24:35.680Z,79.90
2023-04-22T12:27:03.597Z,80.30
2023-04-22T12:29:34.169Z,80.70
2023-04-22T12:32:01.340Z,80.80
2023-04-22T12:34:31.395Z,80.80
2023-04-22T12:36:59.227Z,81.00
2023-04-22T12:39:26.555Z,81.10
2023-04-22T12:41:53.828Z,81.20
2023-04-22T12:44:25.173Z,81.10
2023-04-22T12:46:52.590Z,81.10
2023-04-22T12:49:19.812Z,81.10
2023-04-22T12:51:46.757Z,81.10
2023-04-22T12:54:13.890Z,80.90
2023-04-22T12:56:41.201Z,80.90
2023-04-22T12:59:14.135Z,80.90
2023-04-22T13:01:41.449Z,80.90
2023-04-22T13:04:08.604Z,80.80
2023-04-22T13:06:36.721Z,80.70
2023-04-22T13:09:14.410Z,80.40
2023-04-22T13:11:41.489Z,80.40
2023-04-22T13:14:08.507Z,80.30
2023-04-22T13:16:35.671Z,80.40
2023-04-22T13:19:02.798Z,80.80
2023-04-22T13:21:29.948Z,81.40
2023-04-22T13:23:57.002Z,82.40
2023-04-22T13:26:25.499Z,83.40
2023-04-22T13:28:52.693Z,84.40
2023-04-22T13:31:19.774Z,85.30
2023-04-22T13:33:47.744Z,86.00
2023-04-22T13:36:22.364Z,86.90
2023-04-22T13:38:52.184Z,87.60
2023-04-22T13:41:19.379Z,88.20
2023-04-22T13:43:46.495Z,89.40
2023-04-22T13:46:13.744Z,90.10
2023-04-22T13:48:40.977Z,90.80
2023-04-22T13:51:08.203Z,91.40
2023-04-22T13:53:37.787Z,91.60
2023-04-22T13:56:05.115Z,91.70
2023-04-22T13:58:32.642Z,91.90
2023-04-22T14:00:59.813Z,92.20
2023-04-22T14:03:29.280Z,92.60
2023-04-22T14:05:56.616Z,92.90
2023-04-22T14:08:24.262Z,93.00
2023-04-22T14:10:51.421Z,92.90
2023-04-22T14:13:19.187Z,92.90
2023-04-22T14:15:46.300Z,93.00
2023-04-22T14:18:13.393Z,93.40
2023-04-22T14:20:40.656Z,93.60
2023-04-22T14:23:07.615Z,93.50
2023-04-22T14:25:35.942Z,93.70
2023-04-22T14:28:03.563Z,93.70
2023-04-22T14:30:30.870Z,93.60
2023-04-22T14:32:58.670Z,93.60
2023-04-22T14:35:25.991Z,93.70
2023-04-22T14:37:53.052Z,93.70
2023-04-22T14:40:20.381Z,93.70
2023-04-22T14:42:47.721Z,93.60
2023-04-22T14:45:14.896Z,93.60
2023-04-22T14:47:41.964Z,93.50
2023-04-22T14:50:10.330Z,93.60
2023-04-22T14:52:37.952Z,93.70
2023-04-22T14:55:15.504Z,93.70
2023-04-22T14:57:53.269Z,93.80
2023-04-22T15:00:20.655Z,93.90
2023-04-22T15:02:48.225Z,94.00
2023-04-22T15:05:15.496Z,94.10
2023-04-22T15:07:42.779Z,94.20
2023-04-22T15:10:23.258Z,94.20
2023-04-22T15:12:50.832Z,94.30
2023-04-22T15:15:18.505Z,94.30
2023-04-22T15:17:47.266Z,94.40
2023-04-22T15:20:14.910Z,94.70
2023-04-22T15:22:42.291Z,94.50
2023-04-22T15:25:10.879Z,94.50
2023-04-22T15:27:38.815Z,94.50
2023-04-22T15:30:07.359Z,94.40
2023-04-22T15:32:35.059Z,94.50
2023-04-22T15:35:02.733Z,94.50
2023-04-22T15:37:30.046Z,94.50
2023-04-22T15:39:57.068Z,94.50
2023-04-22T15:42:24.396Z,94.50
2023-04-22T15:44:54.263Z,94.50
2023-04-22T15:47:21.515Z,94.50
2023-04-22T15:49:51.108Z,94.50
2023-04-22T15:52:19.584Z,94.50
2023-04-22T15:54:46.942Z,94.80
2023-04-22T15:57:14.051Z,94.50
2023-04-22T15:59:41.351Z,94.50
2023-04-22T16:02:09.885Z,94.50
2023-04-22T16:04:37.389Z,94.50
2023-04-22T16:07:06.060Z,94.50
2023-04-22T16:09:33.376Z,94.40
2023-04-22T16:12:01.766Z,94.40
2023-04-22T16:14:28.849Z,94.50
2023-04-22T16:16:56.097Z,94.50
2023-04-22T16:19:23.517Z,94.70
2023-04-22T16:21:50.851Z,94.70
2023-04-22T16:24:18.210Z,94.70
2023-04-22T16:26:45.302Z,94.80
2023-04-22T16:29:12.306Z,94.90
2023-04-22T16:31:39.368Z,94.90
2023-04-22T16:34:06.510Z,95.10
2023-04-22T16:36:34.009Z,95.20
2023-04-22T16:39:01.723Z,95.20
2023-04-22T16:41:29.186Z,95.30
2023-04-22T16:43:56.372Z,95.40
2023-04-22T16:46:23.511Z,95.40
2023-04-22T16:48:50.584Z,95.50
2023-04-22T16:51:17.664Z,95.60
2023-04-22T16:53:45.263Z,95.70
2023-04-22T16:56:12.290Z,95.80
2023-04-22T16:58:39.404Z,95.80
2023-04-22T17:01:08.763Z,95.80
2023-04-22T17:03:36.286Z,95.80
2023-04-22T17:06:03.851Z,95.80
2023-04-22T17:08:30.975Z,95.90
2023-04-22T17:10:58.869Z,96.20
2023-04-22T17:13:26.333Z,96.20
2023-04-22T17:15:53.520Z,96.30
2023-04-22T17:18:20.674Z,96.50
2023-04-22T17:20:49.244Z,96.70
2023-04-22T17:23:17.100Z,96.80
2023-04-22T17:25:48.150Z,96.80
2023-04-22T17:28:15.480Z,97.00
2023-04-22T17:30:42.762Z,97.00
2023-04-22T17:33:09.957Z,97.20
2023-04-22T17:35:36.971Z,97.30
2023-04-22T17:38:04.178Z,97.40
2023-04-22T17:40:31.583Z,97.50
2023-04-22T17:42:58.923Z,97.50
2023-04-22T17:45:26.177Z,97.50
2023-04-22T17:47:53.471Z,97.50
2023-04-22T17:50:20.942Z,97.50
2023-04-22T17:52:48.118Z,97.50
2023-04-22T17:55:15.684Z,97.50
2023-04-22T17:57:42.931Z,97.50
2023-04-22T18:00:10.803Z,97.50
2023-04-22T18:02:39.956Z,97.40
2023-04-22T18:05:08.106Z,97.40
2023-04-22T18:07:35.741Z,97.40
2023-04-22T18:10:06.814Z,97.40
2023-04-22T18:12:36.969Z,97.50
2023-04-22T18:15:05.069Z,97.60
2023-04-22T18:17:32.409Z,97.50
2023-04-22T18:20:13.980Z,97.50
2023-04-22T18:22:44.549Z,97.60
2023-04-22T18:25:15.114Z,97.60
2023-04-22T18:27:44.721Z,97.60
2023-04-22T18:30:12.061Z,97.70
2023-04-22T18:32:39.346Z,97.70
2023-04-22T18:35:07.744Z,97.70
2023-04-22T18:37:39.669Z,97.60
2023-04-22T18:40:08.233Z,97.60
2023-04-22T18:42:35.616Z,97.60
2023-04-22T18:45:04.773Z,97.50
2023-04-22T18:47:32.432Z,97.50
2023-04-22T18:50:03.043Z,97.60
2023-04-22T18:52:30.369Z,97.50
2023-04-22T18:54:57.617Z,97.50
2023-04-22T18:57:24.812Z,97.50
2023-04-22T18:59:52.123Z,97.60
2023-04-22T19:02:19.310Z,97.70
2023-04-22T19:04:47.346Z,97.80
2023-04-22T19:07:14.898Z,97.80
2023-04-22T19:09:42.031Z,97.70
2023-04-22T19:12:14.786Z,97.80
2023-04-22T19:14:42.500Z,97.70
2023-04-22T19:17:10.131Z,97.70
2023-04-22T19:19:37.190Z,97.70
2023-04-22T19:22:04.334Z,97.70
2023-04-22T19:24:35.417Z,97.60
2023-04-22T19:27:03.053Z,97.70
2023-04-22T19:29:30.177Z,97.70
2023-04-22T19:31:57.519Z,97.70
2023-04-22T19:34:24.684Z,97.60
2023-04-22T19:36:51.661Z,97.50
2023-04-22T19:39:18.625Z,97.50
2023-04-22T19:41:45.736Z,97.50
2023-04-22T19:44:15.414Z,97.50
2023-04-22T19:46:46.319Z,97.50
2023-04-22T19:49:14.010Z,97.50
2023-04-22T19:51:42.076Z,97.50
2023-04-22T19:54:13.283Z,97.50
2023-04-22T19:56:41.537Z,97.60
2023-04-22T19:59:09.113Z,97.60
2023-04-22T20:01:36.749Z,97.60
2023-04-22T20:04:04.799Z,97.50
2023-04-22T20:06:34.171Z,97.50
2023-04-22T20:09:05.460Z,97.50
2023-04-22T20:11:32.951Z,97.50
2023-04-22T20:14:01.125Z,97.50
2023-04-22T20:16:28.801Z,97.50
2023-04-22T20:18:58.218Z,97.50
2023-04-22T20:21:25.921Z,97.50
2023-04-22T20:23:55.871Z,97.50
2023-04-22T20:26:23.308Z,97.50
2023-04-22T20:28:54.163Z,97.60
2023-04-22T20:31:24.529Z,97.70
2023-04-22T20:33:51.847Z,97.70
2023-04-22T20:36:20.240Z,97.80
2023-04-22T20:38:54.962Z,97.80
2023-04-22T20:41:24.849Z,97.70
2023-04-22T20:43:52.435Z,97.60
2023-04-22T20:46:22.649Z,97.50
2023-04-22T20:48:50.063Z,97.60
2023-04-22T20:51:56.555Z,97.60
2023-04-22T20:54:28.962Z,97.60
2023-04-22T20:57:08.623Z,97.70
2023-04-22T20:59:36.805Z,97.70
2023-04-22T21:02:06.541Z,97.70
2023-04-22T21:04:33.869Z,97.70
2023-04-22T21:07:04.086Z,97.70
2023-04-22T21:09:32.775Z,97.80
2023-04-22T21:12:00.037Z,97.80
2023-04-22T21:14:27.513Z,97.80
2023-04-22T21:17:25.707Z,97.80
2023-04-22T21:19:56.215Z,97.70
2023-04-22T21:22:26.544Z,97.80
2023-04-22T21:24:53.898Z,97.80
2023-04-22T21:27:22.366Z,97.80
2023-04-22T21:29:50.157Z,97.80
2023-04-22T21:32:17.779Z,97.90
2023-04-22T21:34:45.286Z,97.90
2023-04-22T21:37:12.882Z,97.90
2023-04-22T21:39:40.936Z,97.90
2023-04-22T21:42:08.869Z,97.90
2023-04-22T21:44:38.051Z,97.90
2023-04-22T21:47:13.052Z,97.90
2023-04-22T21:49:40.229Z,97.90
2023-04-22T21:52:07.531Z,97.90
2023-04-22T21:54:34.707Z,97.90
2023-04-22T21:57:02.329Z,97.90
2023-04-22T21:59:29.311Z,97.80
2023-04-22T22:01:56.542Z,97.80
2023-04-22T22:04:23.640Z,97.80
2023-04-22T22:06:50.941Z,97.90
2023-04-22T22:09:19.162Z,97.90
2023-04-22T22:11:46.123Z,97.90
2023-04-22T22:14:13.244Z,97.90
2023-04-22T22:16:40.412Z,97.90
2023-04-22T22:19:11.019Z,97.90
2023-04-22T22:21:38.680Z,97.90
2023-04-22T22:24:06.430Z,97.90
2023-04-22T22:26:41.347Z,97.90
2023-04-22T22:29:15.656Z,97.80
2023-04-22T22:31:44.459Z,97.90
2023-04-22T22:34:11.947Z,97.90
2023-04-22T22:36:39.170Z,97.80
2023-04-22T22:39:06.594Z,97.90
2023-04-22T22:41:33.685Z,97.80
2023-04-22T22:44:00.754Z,97.80
2023-04-22T22:46:27.917Z,97.80
2023-04-22T22:48:55.911Z,97.80
2023-04-22T22:51:22.896Z,97.80
2023-04-22T22:53:49.991Z,97.80
2023-04-22T22:56:18.163Z,97.80
2023-04-22T22:58:46.235Z,97.80
2023-04-22T23:01:13.315Z,97.80
2023-04-22T23:03:40.939Z,97.70
2023-04-22T23:06:08.112Z,97.70
2023-04-22T23:08:35.300Z,97.70
2023-04-22T23:11:08.290Z,97.70
2023-04-22T23:13:39.259Z,97.70
2023-04-22T23:16:06.596Z,98.00
2023-04-22T23:18:36.136Z,97.70
2023-04-22T23:21:06.720Z,97.70
2023-04-22T23:23:39.451Z,97.70
2023-04-22T23:26:07.115Z,97.70
2023-04-22T23:28:34.833Z,97.80
2023-04-22T23:31:04.218Z,97.70
2023-04-22T23:33:34.689Z,97.70
2023-04-22T23:36:05.396Z,97.70
2023-04-22T23:38:32.398Z,97.80
2023-04-22T23:40:59.548Z,97.80
2023-04-22T23:43:26.551Z,98.00
2023-04-22T23:45:53.550Z,97.80
2023-04-22T23:48:20.700Z,97.80
2023-04-22T23:50:47.657Z,97.80
2023-04-22T23:53:14.727Z,97.80
2023-04-22T23:55:42.029Z,97.80
2023-04-22T23:58:09.365Z,97.80
